createdAt,value
2017-07-10T00:00:00.882Z,0
2017-07-10T00:01:01.047Z,0
2017-07-10T00:02:00.981Z,0
2017-07-10T00:03:00.944Z,0
2017-07-10T00:04:01.102Z,0
2017-07-10T00:05:01.146Z,0
2017-07-10T00:06:01.036Z,0
2017-07-10T00:07:01.149Z,0
2017-07-10T00:08:01.316Z,0
2017-07-10T00:09:01.436Z,0
2017-07-10T00:10:01.169Z,0
2017-07-10T00:11:02.178Z,0
2017-07-10T00:12:01.193Z,0
2017-07-10T00:13:01.222Z,0
2017-07-10T00:14:01.060Z,0
2017-07-10T00:15:01.244Z,0
2017-07-10T00:16:01.420Z,0
2017-07-10T00:17:01.683Z,0
2017-07-10T00:18:02.941Z,0
2017-07-10T00:19:01.586Z,0
2017-07-10T00:20:01.834Z,0
2017-07-10T00:21:01.292Z,0
2017-07-10T00:22:01.810Z,0
2017-07-10T00:23:02.035Z,0
2017-07-10T00:24:01.780Z,0
2017-07-10T00:25:02.099Z,0
2017-07-10T00:26:01.749Z,0
2017-07-10T00:27:01.838Z,0
2017-07-10T00:28:01.944Z,0
2017-07-10T00:29:02.265Z,0
2017-07-10T00:30:01.623Z,0
2017-07-10T00:31:01.792Z,0
2017-07-10T00:32:01.630Z,0
2017-07-10T00:33:01.925Z,0
2017-07-10T00:34:01.922Z,0
2017-07-10T00:35:01.791Z,0
2017-07-10T00:36:02.327Z,0
2017-07-10T00:37:02.424Z,0
2017-07-10T00:38:02.314Z,0
2017-07-10T00:39:02.223Z,0
2017-07-10T00:40:02.067Z,0
2017-07-10T00:41:01.988Z,0
2017-07-10T00:42:02.112Z,0
2017-07-10T00:43:02.084Z,0
2017-07-10T00:44:02.380Z,0
2017-07-10T00:45:02.311Z,0
2017-07-10T00:46:02.149Z,0
2017-07-10T00:47:02.251Z,0
2017-07-10T00:48:02.830Z,0
2017-07-10T00:49:02.279Z,0
2017-07-10T00:50:02.536Z,0
2017-07-10T00:51:02.455Z,0
2017-07-10T00:52:02.421Z,0
2017-07-10T00:53:02.561Z,0
2017-07-10T00:54:02.419Z,0
2017-07-10T00:55:02.920Z,0
2017-07-10T00:56:02.623Z,0
2017-07-10T00:57:02.817Z,0
2017-07-10T00:58:03.068Z,0
2017-07-10T00:59:02.804Z,0
2017-07-10T01:00:03.006Z,0
2017-07-10T01:01:02.838Z,0
2017-07-10T01:02:02.734Z,0
2017-07-10T01:03:02.828Z,0
2017-07-10T01:04:02.901Z,0
2017-07-10T01:05:03.005Z,0
2017-07-10T01:06:04.155Z,0
2017-07-10T01:07:02.885Z,0
2017-07-10T01:08:02.937Z,0
2017-07-10T01:09:03.041Z,0
2017-07-10T01:10:02.979Z,0
2017-07-10T01:11:03.054Z,0
2017-07-10T01:12:03.031Z,0
2017-07-10T01:13:03.273Z,0
2017-07-10T01:14:03.357Z,0
2017-07-10T01:15:03.598Z,0
2017-07-10T01:16:03.436Z,0
2017-07-10T01:17:03.599Z,0
2017-07-10T01:18:03.561Z,0
2017-07-10T01:19:03.465Z,0
2017-07-10T01:20:03.556Z,0
2017-07-10T01:21:03.363Z,0
2017-07-10T01:22:03.419Z,0
2017-07-10T01:23:03.675Z,0
2017-07-10T01:24:04.079Z,0
2017-07-10T01:25:04.271Z,0
2017-07-10T01:26:03.475Z,0
2017-07-10T01:27:03.548Z,0
2017-07-10T01:28:03.869Z,0
2017-07-10T01:29:04.375Z,0
2017-07-10T01:30:03.861Z,0
2017-07-10T01:31:04.935Z,0
2017-07-10T01:32:04.005Z,0
2017-07-10T01:33:03.783Z,0
2017-07-10T01:34:04.203Z,0
2017-07-10T01:35:03.875Z,0
2017-07-10T01:36:03.816Z,0
2017-07-10T01:37:04.183Z,0
2017-07-10T01:38:04.015Z,0
2017-07-10T01:39:04.049Z,0
2017-07-10T01:40:04.230Z,0
2017-07-10T01:41:04.721Z,0
2017-07-10T01:42:04.119Z,0
2017-07-10T01:43:04.091Z,0
2017-07-10T01:44:04.022Z,0
2017-07-10T01:45:04.540Z,0
2017-07-10T01:46:04.258Z,0
2017-07-10T01:47:04.474Z,0
2017-07-10T01:48:04.533Z,0
2017-07-10T01:49:04.522Z,0
2017-07-10T01:50:05.317Z,0
2017-07-10T01:51:04.646Z,0
2017-07-10T01:52:05.002Z,0
2017-07-10T01:53:04.493Z,0
2017-07-10T01:54:04.646Z,0
2017-07-10T01:55:04.639Z,0
2017-07-10T01:56:04.692Z,0
2017-07-10T01:57:04.461Z,0
2017-07-10T01:58:04.527Z,0
2017-07-10T01:59:04.601Z,0
2017-07-10T02:00:04.688Z,0
2017-07-10T02:01:04.615Z,0
2017-07-10T02:02:04.759Z,0
2017-07-10T02:03:04.761Z,0
2017-07-10T02:04:04.762Z,0
2017-07-10T02:05:04.953Z,0
2017-07-10T02:06:04.749Z,0
2017-07-10T02:07:04.836Z,0
2017-07-10T02:08:04.851Z,0
2017-07-10T02:09:04.893Z,0
2017-07-10T02:10:04.936Z,0
2017-07-10T02:11:04.963Z,0
2017-07-10T02:12:05.042Z,0
2017-07-10T02:13:05.099Z,0
2017-07-10T02:14:05.138Z,0
2017-07-10T02:15:05.070Z,0
2017-07-10T02:16:05.124Z,0
2017-07-10T02:17:05.149Z,0
2017-07-10T02:18:05.197Z,0
2017-07-10T02:19:05.233Z,0
2017-07-10T02:20:05.233Z,0
2017-07-10T02:21:05.291Z,0
2017-07-10T02:22:05.340Z,0
2017-07-10T02:23:05.360Z,0
2017-07-10T02:24:05.370Z,0
2017-07-10T02:25:05.436Z,0
2017-07-10T02:26:05.429Z,0
2017-07-10T02:27:05.505Z,0
2017-07-10T02:28:05.531Z,0
2017-07-10T02:29:05.722Z,0
2017-07-10T02:30:05.574Z,0
2017-07-10T02:31:05.670Z,0
2017-07-10T02:32:05.741Z,0
2017-07-10T02:33:05.694Z,0
2017-07-10T02:34:05.760Z,0
2017-07-10T02:35:05.746Z,0
2017-07-10T02:36:05.810Z,0
2017-07-10T02:37:05.823Z,0
2017-07-10T02:38:05.993Z,0
2017-07-10T02:39:05.925Z,0
2017-07-10T02:40:05.958Z,0
2017-07-10T02:41:06.017Z,0
2017-07-10T02:42:05.994Z,0
2017-07-10T02:43:06.108Z,0
2017-07-10T02:44:06.055Z,0
2017-07-10T02:45:06.120Z,5
2017-07-10T02:46:06.213Z,5
2017-07-10T02:47:06.162Z,5
2017-07-10T02:48:06.225Z,5
2017-07-10T02:49:06.270Z,5
2017-07-10T02:50:06.261Z,5
2017-07-10T02:51:06.296Z,5
2017-07-10T02:52:06.373Z,5
2017-07-10T02:53:06.450Z,5
2017-07-10T02:54:06.451Z,5
2017-07-10T02:55:06.462Z,5
2017-07-10T02:56:06.624Z,10
2017-07-10T02:57:06.605Z,10
2017-07-10T02:58:06.609Z,10
2017-07-10T02:59:06.616Z,10
2017-07-10T03:00:06.778Z,10
2017-07-10T03:01:06.674Z,10
2017-07-10T03:02:06.661Z,10
2017-07-10T03:03:06.713Z,10
2017-07-10T03:04:06.712Z,10
2017-07-10T03:05:06.891Z,10
2017-07-10T03:06:06.817Z,15
2017-07-10T03:07:07.128Z,15
2017-07-10T03:08:07.038Z,15
2017-07-10T03:09:07.567Z,15
2017-07-10T03:10:06.953Z,20
2017-07-10T03:11:06.966Z,20
2017-07-10T03:12:07.108Z,20
2017-07-10T03:13:07.076Z,20
2017-07-10T03:14:07.128Z,20
2017-07-10T03:15:07.114Z,25
2017-07-10T03:16:07.120Z,25
2017-07-10T03:17:07.156Z,25
2017-07-10T03:18:07.201Z,25
2017-07-10T03:19:07.220Z,30
2017-07-10T03:20:07.288Z,30
2017-07-10T03:21:07.317Z,30
2017-07-10T03:22:07.427Z,35
2017-07-10T03:23:07.345Z,35
2017-07-10T03:24:07.418Z,35
2017-07-10T03:25:07.437Z,40
2017-07-10T03:26:07.455Z,40
2017-07-10T03:27:07.568Z,40
2017-07-10T03:28:07.614Z,45
2017-07-10T03:29:07.578Z,45
2017-07-10T03:30:07.682Z,50
2017-07-10T03:31:07.645Z,55
2017-07-10T03:32:07.676Z,50
2017-07-10T03:33:07.762Z,55
2017-07-10T03:34:07.750Z,55
2017-07-10T03:35:08.003Z,60
2017-07-10T03:36:07.789Z,60
2017-07-10T03:37:07.839Z,60
2017-07-10T03:38:07.888Z,60
2017-07-10T03:39:07.904Z,60
2017-07-10T03:40:07.962Z,60
2017-07-10T03:41:07.973Z,60
2017-07-10T03:42:08.016Z,60
2017-07-10T03:43:08.075Z,60
2017-07-10T03:44:08.097Z,65
2017-07-10T03:45:08.086Z,65
2017-07-10T03:46:08.146Z,65
2017-07-10T03:47:08.174Z,65
2017-07-10T03:48:08.204Z,70
2017-07-10T03:49:08.246Z,70
2017-07-10T03:50:08.283Z,70
2017-07-10T03:51:08.337Z,75
2017-07-10T03:52:08.347Z,80
2017-07-10T03:53:08.405Z,80
2017-07-10T03:54:08.407Z,85
2017-07-10T03:55:08.448Z,90
2017-07-10T03:56:08.480Z,90
2017-07-10T03:57:08.515Z,90
2017-07-10T03:58:08.569Z,90
2017-07-10T03:59:08.758Z,95
2017-07-10T04:00:35.055Z,105
2017-07-10T04:01:08.797Z,105
2017-07-10T04:02:09.097Z,110
2017-07-10T04:03:08.818Z,115
2017-07-10T04:04:08.858Z,120
2017-07-10T04:05:08.926Z,125
2017-07-10T04:06:08.966Z,130
2017-07-10T04:07:08.948Z,130
2017-07-10T04:08:08.984Z,135
2017-07-10T04:09:08.985Z,145
2017-07-10T04:10:09.011Z,150
2017-07-10T04:11:09.168Z,160
2017-07-10T04:12:09.135Z,165
2017-07-10T04:13:09.100Z,175
2017-07-10T04:14:09.224Z,185
2017-07-10T04:15:09.226Z,195
2017-07-10T04:16:09.202Z,200
2017-07-10T04:17:09.271Z,210
2017-07-10T04:18:09.275Z,220
2017-07-10T04:19:09.332Z,225
2017-07-10T04:20:09.411Z,230
2017-07-10T04:21:09.377Z,245
2017-07-10T04:22:09.501Z,275
2017-07-10T04:23:09.499Z,305
2017-07-10T04:24:09.505Z,325
2017-07-10T04:25:09.784Z,325
2017-07-10T04:26:09.592Z,395
2017-07-10T04:27:09.604Z,490
2017-07-10T04:28:09.614Z,550
2017-07-10T04:29:09.672Z,600
2017-07-10T04:30:09.747Z,630
2017-07-10T04:31:09.761Z,610
2017-07-10T04:32:09.787Z,515
2017-07-10T04:33:09.927Z,510
2017-07-10T04:34:09.852Z,555
2017-07-10T04:35:09.900Z,490
2017-07-10T04:36:09.947Z,400
2017-07-10T04:37:10.023Z,325
2017-07-10T04:38:10.001Z,310
2017-07-10T04:39:10.071Z,340
2017-07-10T04:40:10.079Z,355
2017-07-10T04:41:10.081Z,320
2017-07-10T04:42:10.128Z,305
2017-07-10T04:43:10.222Z,310
2017-07-10T04:44:10.229Z,305
2017-07-10T04:45:10.322Z,310
2017-07-10T04:46:10.311Z,310
2017-07-10T04:47:10.392Z,305
2017-07-10T04:48:10.561Z,305
2017-07-10T04:49:10.407Z,315
2017-07-10T04:50:10.421Z,310
2017-07-10T04:51:10.501Z,300
2017-07-10T04:52:10.498Z,290
2017-07-10T04:53:10.596Z,285
2017-07-10T04:54:10.583Z,280
2017-07-10T04:55:10.608Z,275
2017-07-10T04:56:10.664Z,275
2017-07-10T04:57:10.710Z,275
2017-07-10T04:58:10.798Z,275
2017-07-10T04:59:10.811Z,275
2017-07-10T05:00:10.849Z,275
2017-07-10T05:01:10.852Z,275
2017-07-10T05:02:10.917Z,270
2017-07-10T05:03:10.904Z,270
2017-07-10T05:04:10.953Z,265
2017-07-10T05:05:11.131Z,265
2017-07-10T05:06:11.011Z,260
2017-07-10T05:07:11.114Z,255
2017-07-10T05:08:11.103Z,250
2017-07-10T05:09:11.097Z,245
2017-07-10T05:10:11.112Z,240
2017-07-10T05:11:11.220Z,235
2017-07-10T05:12:11.233Z,225
2017-07-10T05:13:11.298Z,220
2017-07-10T05:14:11.318Z,210
2017-07-10T05:15:11.315Z,205
2017-07-10T05:16:11.351Z,200
2017-07-10T05:17:11.448Z,200
2017-07-10T05:18:11.423Z,195
2017-07-10T05:19:11.522Z,195
2017-07-10T05:20:11.515Z,195
2017-07-10T05:21:11.621Z,195
2017-07-10T05:22:11.601Z,200
2017-07-10T05:23:11.620Z,210
2017-07-10T05:24:11.684Z,210
2017-07-10T05:25:11.717Z,215
2017-07-10T05:26:11.730Z,225
2017-07-10T05:27:11.748Z,235
2017-07-10T05:28:11.796Z,245
2017-07-10T05:29:12.030Z,260
2017-07-10T05:30:11.903Z,275
2017-07-10T05:31:11.914Z,285
2017-07-10T05:32:11.939Z,300
2017-07-10T05:33:12.026Z,325
2017-07-10T05:34:12.027Z,340
2017-07-10T05:35:12.093Z,360
2017-07-10T05:36:12.054Z,400
2017-07-10T05:37:12.111Z,400
2017-07-10T05:38:12.187Z,500
2017-07-10T05:39:12.206Z,520
2017-07-10T05:40:12.210Z,515
2017-07-10T05:41:12.203Z,455
2017-07-10T05:42:12.335Z,435
2017-07-10T05:43:12.280Z,405
2017-07-10T05:44:12.392Z,390
2017-07-10T05:45:12.404Z,365
2017-07-10T05:46:12.426Z,350
2017-07-10T05:47:12.529Z,340
2017-07-10T05:48:12.496Z,335
2017-07-10T05:49:12.542Z,330
2017-07-10T05:50:12.555Z,330
2017-07-10T05:51:12.606Z,325
2017-07-10T05:52:12.637Z,325
2017-07-10T05:53:12.722Z,330
2017-07-10T05:54:12.712Z,335
2017-07-10T05:55:12.700Z,340
2017-07-10T05:56:12.794Z,345
2017-07-10T05:57:12.819Z,350
2017-07-10T05:58:12.857Z,355
2017-07-10T05:59:12.900Z,350
2017-07-10T06:00:12.958Z,355
2017-07-10T06:01:12.947Z,360
2017-07-10T06:02:13.078Z,375
2017-07-10T06:03:13.023Z,380
2017-07-10T06:04:13.159Z,390
2017-07-10T06:05:13.118Z,410
2017-07-10T06:06:13.125Z,425
2017-07-10T06:07:13.163Z,445
2017-07-10T06:08:13.183Z,470
2017-07-10T06:09:13.269Z,470
2017-07-10T06:10:13.314Z,490
2017-07-10T06:11:13.319Z,510
2017-07-10T06:12:13.458Z,550
2017-07-10T06:13:13.410Z,585
2017-07-10T06:14:13.424Z,625
2017-07-10T06:15:13.466Z,630
2017-07-10T06:16:13.484Z,605
2017-07-10T06:17:13.722Z,635
2017-07-10T06:18:13.561Z,635
2017-07-10T06:19:13.613Z,660
2017-07-10T06:20:13.667Z,580
2017-07-10T06:21:13.702Z,495
2017-07-10T06:22:13.887Z,475
2017-07-10T06:23:13.731Z,460
2017-07-10T06:24:13.799Z,440
2017-07-10T06:25:13.811Z,440
2017-07-10T06:26:13.878Z,445
2017-07-10T06:27:14.007Z,455
2017-07-10T06:28:13.928Z,440
2017-07-10T06:29:13.996Z,365
2017-07-10T06:30:13.993Z,335
2017-07-10T06:31:14.104Z,315
2017-07-10T06:32:14.211Z,295
2017-07-10T06:33:14.119Z,280
2017-07-10T06:34:14.168Z,260
2017-07-10T06:35:14.220Z,250
2017-07-10T06:36:14.195Z,240
2017-07-10T06:37:14.264Z,230
2017-07-10T06:38:14.400Z,225
2017-07-10T06:39:14.294Z,215
2017-07-10T06:40:14.438Z,205
2017-07-10T06:41:14.428Z,195
2017-07-10T06:42:14.440Z,185
2017-07-10T06:43:14.488Z,180
2017-07-10T06:44:14.498Z,175
2017-07-10T06:45:14.525Z,170
2017-07-10T06:46:14.568Z,170
2017-07-10T06:47:14.732Z,165
2017-07-10T06:48:14.714Z,170
2017-07-10T06:49:14.718Z,170
2017-07-10T06:50:14.763Z,175
2017-07-10T06:51:14.786Z,175
2017-07-10T06:52:14.775Z,180
2017-07-10T06:53:14.844Z,185
2017-07-10T06:54:14.918Z,190
2017-07-10T06:55:14.916Z,195
2017-07-10T06:56:14.965Z,200
2017-07-10T06:57:15.016Z,200
2017-07-10T06:58:15.025Z,205
2017-07-10T06:59:15.062Z,210
2017-07-10T07:00:15.106Z,215
2017-07-10T07:01:15.232Z,220
2017-07-10T07:02:15.141Z,230
2017-07-10T07:03:15.573Z,235
2017-07-10T07:04:15.326Z,245
2017-07-10T07:05:15.271Z,250
2017-07-10T07:06:15.323Z,255
2017-07-10T07:07:15.334Z,265
2017-07-10T07:08:15.520Z,270
2017-07-10T07:09:15.401Z,275
2017-07-10T07:10:15.443Z,280
2017-07-10T07:11:15.523Z,280
2017-07-10T07:12:15.515Z,275
2017-07-10T07:13:15.674Z,270
2017-07-10T07:14:15.639Z,265
2017-07-10T07:15:15.690Z,245
2017-07-10T07:16:15.653Z,230
2017-07-10T07:17:15.697Z,210
2017-07-10T07:18:15.851Z,195
2017-07-10T07:19:15.838Z,190
2017-07-10T07:20:15.774Z,190
2017-07-10T07:21:15.826Z,190
2017-07-10T07:22:15.897Z,195
2017-07-10T07:23:16.230Z,205
2017-07-10T07:24:15.978Z,210
2017-07-10T07:25:16.058Z,220
2017-07-10T07:26:16.030Z,225
2017-07-10T07:27:16.095Z,230
2017-07-10T07:28:16.126Z,235
2017-07-10T07:29:16.151Z,245
2017-07-10T07:30:16.156Z,260
2017-07-10T07:31:16.233Z,270
2017-07-10T07:32:16.282Z,285
2017-07-10T07:33:16.301Z,300
2017-07-10T07:34:16.373Z,310
2017-07-10T07:35:16.439Z,305
2017-07-10T07:36:16.485Z,295
2017-07-10T07:37:16.439Z,280
2017-07-10T07:38:16.528Z,255
2017-07-10T07:39:16.527Z,240
2017-07-10T07:40:16.529Z,225
2017-07-10T07:41:16.593Z,215
2017-07-10T07:42:16.649Z,205
2017-07-10T07:43:16.672Z,200
2017-07-10T07:44:16.762Z,185
2017-07-10T07:45:16.738Z,170
2017-07-10T07:46:16.797Z,155
2017-07-10T07:47:16.843Z,140
2017-07-10T07:48:16.836Z,125
2017-07-10T07:49:16.896Z,120
2017-07-10T07:50:16.909Z,115
2017-07-10T07:51:16.988Z,110
2017-07-10T07:52:16.994Z,110
2017-07-10T07:53:16.974Z,105
2017-07-10T07:54:17.146Z,100
2017-07-10T07:55:17.159Z,100
2017-07-10T07:56:17.105Z,95
2017-07-10T07:57:17.156Z,90
2017-07-10T07:58:17.212Z,85
2017-07-10T07:59:17.290Z,85
2017-07-10T08:00:17.296Z,85
2017-07-10T08:01:17.441Z,80
2017-07-10T08:02:17.332Z,80
2017-07-10T08:03:17.668Z,75
2017-07-10T08:04:17.404Z,70
2017-07-10T08:05:17.459Z,65
2017-07-10T08:06:17.505Z,60
2017-07-10T08:07:17.556Z,55
2017-07-10T08:08:17.562Z,50
2017-07-10T08:09:17.603Z,45
2017-07-10T08:10:17.602Z,40
2017-07-10T08:11:17.784Z,40
2017-07-10T08:12:17.730Z,35
2017-07-10T08:13:17.727Z,35
2017-07-10T08:14:17.827Z,35
2017-07-10T08:15:17.831Z,30
2017-07-10T08:16:17.832Z,30
2017-07-10T08:17:17.909Z,30
2017-07-10T08:18:17.928Z,30
2017-07-10T08:19:17.993Z,30
2017-07-10T08:20:18.068Z,35
2017-07-10T08:21:18.032Z,35
2017-07-10T08:22:18.094Z,35
2017-07-10T08:23:18.071Z,35
2017-07-10T08:24:18.104Z,30
2017-07-10T08:25:18.242Z,30
2017-07-10T08:26:18.211Z,30
2017-07-10T08:27:18.216Z,30
2017-07-10T08:28:18.280Z,30
2017-07-10T08:29:18.327Z,30
2017-07-10T08:30:18.337Z,30
2017-07-10T08:31:18.404Z,30
2017-07-10T08:32:18.403Z,30
2017-07-10T08:33:18.480Z,30
2017-07-10T08:34:18.503Z,30
2017-07-10T08:35:18.642Z,30
2017-07-10T08:36:18.539Z,25
2017-07-10T08:37:18.656Z,25
2017-07-10T08:38:18.671Z,25
2017-07-10T08:39:18.673Z,25
2017-07-10T08:40:18.933Z,25
2017-07-10T08:41:18.725Z,25
2017-07-10T08:42:18.820Z,25
2017-07-10T08:43:18.791Z,25
2017-07-10T08:44:18.935Z,25
2017-07-10T08:45:19.034Z,25
2017-07-10T08:46:18.945Z,25
2017-07-10T08:47:19.017Z,25
2017-07-10T08:48:19.013Z,25
2017-07-10T08:49:19.012Z,25
2017-07-10T08:50:19.133Z,25
2017-07-10T08:51:19.103Z,25
2017-07-10T08:52:19.169Z,25
2017-07-10T08:53:19.212Z,25
2017-07-10T08:54:19.431Z,25
2017-07-10T08:55:19.252Z,30
2017-07-10T08:56:19.312Z,30
2017-07-10T08:57:19.528Z,30
2017-07-10T08:58:19.335Z,30
2017-07-10T08:59:19.667Z,30
2017-07-10T09:00:19.391Z,30
2017-07-10T09:01:19.944Z,30
2017-07-10T09:02:19.997Z,30
2017-07-10T09:03:19.947Z,35
2017-07-10T09:04:19.902Z,35
2017-07-10T09:05:20.022Z,35
2017-07-10T09:06:20.024Z,35
2017-07-10T09:07:20.125Z,35
2017-07-10T09:08:20.138Z,40
2017-07-10T09:09:20.137Z,40
2017-07-10T09:10:20.162Z,40
2017-07-10T09:11:20.225Z,40
2017-07-10T09:12:20.231Z,40
2017-07-10T09:13:20.246Z,40
2017-07-10T09:14:20.335Z,45
2017-07-10T09:15:20.455Z,45
2017-07-10T09:16:20.442Z,45
2017-07-10T09:17:20.398Z,45
2017-07-10T09:18:20.457Z,50
2017-07-10T09:19:20.522Z,50
2017-07-10T09:20:20.526Z,55
2017-07-10T09:21:20.546Z,55
2017-07-10T09:22:20.616Z,60
2017-07-10T09:23:20.634Z,60
2017-07-10T09:24:20.625Z,60
2017-07-10T09:25:20.698Z,65
2017-07-10T09:26:20.716Z,65
2017-07-10T09:27:20.955Z,70
2017-07-10T09:28:20.814Z,70
2017-07-10T09:29:20.861Z,70
2017-07-10T09:30:20.896Z,75
2017-07-10T09:31:20.876Z,75
2017-07-10T09:32:20.954Z,70
2017-07-10T09:33:20.982Z,70
2017-07-10T09:34:21.048Z,70
2017-07-10T09:35:21.012Z,70
2017-07-10T09:36:21.046Z,70
2017-07-10T09:37:21.106Z,70
2017-07-10T09:38:21.149Z,70
2017-07-10T09:39:21.191Z,70
2017-07-10T09:40:21.546Z,65
2017-07-10T09:41:21.323Z,70
2017-07-10T09:42:21.309Z,70
2017-07-10T09:43:21.494Z,70
2017-07-10T09:44:21.332Z,70
2017-07-10T09:45:21.435Z,70
2017-07-10T09:46:21.479Z,75
2017-07-10T09:47:21.381Z,75
2017-07-10T09:48:21.486Z,75
2017-07-10T09:49:21.550Z,80
2017-07-10T09:50:21.550Z,80
2017-07-10T09:51:21.614Z,85
2017-07-10T09:52:21.621Z,85
2017-07-10T09:53:21.670Z,90
2017-07-10T09:54:21.701Z,90
2017-07-10T09:55:21.720Z,95
2017-07-10T09:56:21.844Z,100
2017-07-10T09:57:21.780Z,110
2017-07-10T09:58:21.830Z,115
2017-07-10T09:59:21.870Z,125
2017-07-10T10:00:21.887Z,130
2017-07-10T10:01:30.668Z,140
2017-07-10T10:02:21.975Z,140
2017-07-10T10:03:21.996Z,140
2017-07-10T10:04:22.028Z,145
2017-07-10T10:05:22.031Z,150
2017-07-10T10:06:22.173Z,150
2017-07-10T10:07:22.117Z,150
2017-07-10T10:08:22.228Z,155
2017-07-10T10:09:22.208Z,155
2017-07-10T10:10:22.336Z,155
2017-07-10T10:11:22.246Z,155
2017-07-10T10:12:22.289Z,155
2017-07-10T10:13:22.281Z,160
2017-07-10T10:14:22.330Z,170
2017-07-10T10:15:22.531Z,180
2017-07-10T10:16:22.391Z,195
2017-07-10T10:17:22.466Z,210
2017-07-10T10:18:22.514Z,225
2017-07-10T10:19:22.528Z,235
2017-07-10T10:20:22.844Z,235
2017-07-10T10:21:22.630Z,235
2017-07-10T10:22:22.639Z,240
2017-07-10T10:23:22.654Z,240
2017-07-10T10:24:22.736Z,240
2017-07-10T10:25:22.905Z,245
2017-07-10T10:26:22.788Z,250
2017-07-10T10:27:22.816Z,265
2017-07-10T10:28:22.841Z,275
2017-07-10T10:29:22.856Z,290
2017-07-10T10:30:23.102Z,295
2017-07-10T10:31:22.914Z,275
2017-07-10T10:32:22.984Z,245
2017-07-10T10:33:23.036Z,240
2017-07-10T10:34:23.054Z,270
2017-07-10T10:35:23.042Z,295
2017-07-10T10:36:23.197Z,300
2017-07-10T10:37:23.205Z,280
2017-07-10T10:38:23.167Z,240
2017-07-10T10:39:23.215Z,215
2017-07-10T10:40:23.248Z,205
2017-07-10T10:41:23.372Z,200
2017-07-10T10:42:23.350Z,205
2017-07-10T10:43:23.363Z,215
2017-07-10T10:44:23.374Z,225
2017-07-10T10:45:23.648Z,240
2017-07-10T10:46:23.494Z,260
2017-07-10T10:47:23.501Z,285
2017-07-10T10:48:23.512Z,290
2017-07-10T10:49:23.566Z,290
2017-07-10T10:50:23.684Z,305
2017-07-10T10:51:23.653Z,305
2017-07-10T10:52:23.631Z,305
2017-07-10T10:53:23.748Z,285
2017-07-10T10:54:23.740Z,260
2017-07-10T10:55:23.761Z,240
2017-07-10T10:56:23.875Z,220
2017-07-10T10:57:23.931Z,210
2017-07-10T10:58:23.862Z,210
2017-07-10T10:59:23.998Z,205
2017-07-10T11:00:23.939Z,190
2017-07-10T11:01:34.289Z,175
2017-07-10T11:02:24.038Z,170
2017-07-10T11:03:24.124Z,185
2017-07-10T11:04:24.181Z,210
2017-07-10T11:05:24.132Z,210
2017-07-10T11:06:24.190Z,190
2017-07-10T11:07:24.208Z,175
2017-07-10T11:08:24.253Z,145
2017-07-10T11:09:24.257Z,145
2017-07-10T11:10:24.504Z,155
2017-07-10T11:11:24.479Z,150
2017-07-10T11:12:24.342Z,140
2017-07-10T11:13:24.422Z,130
2017-07-10T11:14:24.426Z,135
2017-07-10T11:15:24.601Z,150
2017-07-10T11:16:24.551Z,185
2017-07-10T11:17:24.572Z,220
2017-07-10T11:18:24.616Z,245
2017-07-10T11:19:24.665Z,270
2017-07-10T11:20:25.011Z,245
2017-07-10T11:21:24.680Z,195
2017-07-10T11:22:24.757Z,185
2017-07-10T11:23:24.770Z,240
2017-07-10T11:24:24.820Z,255
2017-07-10T11:25:24.815Z,205
2017-07-10T11:26:24.882Z,155
2017-07-10T11:27:24.950Z,130
2017-07-10T11:28:24.974Z,135
2017-07-10T11:29:25.005Z,140
2017-07-10T11:30:25.022Z,165
2017-07-10T11:31:25.069Z,210
2017-07-10T11:32:25.111Z,215
2017-07-10T11:33:25.171Z,210
2017-07-10T11:34:25.172Z,195
2017-07-10T11:35:25.201Z,175
2017-07-10T11:36:25.261Z,180
2017-07-10T11:37:25.265Z,195
2017-07-10T11:38:25.346Z,185
2017-07-10T11:39:25.377Z,150
2017-07-10T11:40:25.383Z,135
2017-07-10T11:41:25.481Z,125
2017-07-10T11:42:25.475Z,170
2017-07-10T11:43:25.551Z,205
2017-07-10T11:44:25.509Z,220
2017-07-10T11:45:25.578Z,200
2017-07-10T11:46:25.613Z,180
2017-07-10T11:47:25.677Z,180
2017-07-10T11:48:25.884Z,165
2017-07-10T11:49:25.681Z,150
2017-07-10T11:50:25.763Z,145
2017-07-10T11:51:25.861Z,140
2017-07-10T11:52:25.990Z,170
2017-07-10T11:53:25.874Z,180
2017-07-10T11:54:25.892Z,185
2017-07-10T11:55:26.025Z,235
2017-07-10T11:56:25.957Z,240
2017-07-10T11:57:25.975Z,260
2017-07-10T11:58:26.048Z,265
2017-07-10T11:59:26.169Z,305
2017-07-10T12:00:26.083Z,335
2017-07-10T12:01:26.143Z,390
2017-07-10T12:02:26.383Z,475
2017-07-10T12:03:26.221Z,545
2017-07-10T12:04:26.269Z,615
2017-07-10T12:05:26.444Z,610
2017-07-10T12:06:26.325Z,500
2017-07-10T12:07:26.385Z,385
2017-07-10T12:08:26.375Z,360
2017-07-10T12:09:26.499Z,370
2017-07-10T12:10:26.470Z,305
2017-07-10T12:11:26.550Z,250
2017-07-10T12:12:26.530Z,250
2017-07-10T12:13:26.525Z,230
2017-07-10T12:14:26.583Z,225
2017-07-10T12:15:26.647Z,300
2017-07-10T12:16:26.669Z,300
2017-07-10T12:17:26.651Z,295
2017-07-10T12:18:26.744Z,310
2017-07-10T12:19:26.766Z,305
2017-07-10T12:20:26.867Z,310
2017-07-10T12:21:26.893Z,305
2017-07-10T12:22:26.829Z,325
2017-07-10T12:23:27.042Z,400
2017-07-10T12:24:27.003Z,415
2017-07-10T12:25:26.993Z,410
2017-07-10T12:26:27.022Z,450
2017-07-10T12:27:27.054Z,555
2017-07-10T12:28:27.071Z,655
2017-07-10T12:29:27.220Z,680
2017-07-10T12:30:27.196Z,690
2017-07-10T12:31:27.268Z,710
2017-07-10T12:32:27.298Z,735
2017-07-10T12:33:27.418Z,705
2017-07-10T12:34:27.293Z,695
2017-07-10T12:35:27.393Z,700
2017-07-10T12:36:27.385Z,650
2017-07-10T12:37:27.508Z,645
2017-07-10T12:38:27.503Z,660
2017-07-10T12:39:27.447Z,670
2017-07-10T12:40:27.553Z,675
2017-07-10T12:41:27.613Z,650
2017-07-10T12:42:27.647Z,575
2017-07-10T12:43:27.643Z,505
2017-07-10T12:44:27.702Z,455
2017-07-10T12:45:27.750Z,435
2017-07-10T12:46:27.742Z,425
2017-07-10T12:47:27.792Z,400
2017-07-10T12:48:27.827Z,420
2017-07-10T12:49:27.897Z,450
2017-07-10T12:50:27.969Z,485
2017-07-10T12:51:27.958Z,490
2017-07-10T12:52:28.025Z,520
2017-07-10T12:53:28.010Z,505
2017-07-10T12:54:28.126Z,475
2017-07-10T12:55:28.131Z,440
2017-07-10T12:56:28.225Z,420
2017-07-10T12:57:28.182Z,430
2017-07-10T12:58:28.232Z,425
2017-07-10T12:59:28.243Z,480
2017-07-10T13:00:28.361Z,490
2017-07-10T13:01:28.330Z,500
2017-07-10T13:02:28.370Z,490
2017-07-10T13:03:28.634Z,475
2017-07-10T13:04:28.477Z,455
2017-07-10T13:05:28.509Z,450
2017-07-10T13:06:28.545Z,430
2017-07-10T13:07:28.541Z,390
2017-07-10T13:08:28.614Z,370
2017-07-10T13:09:28.633Z,335
2017-07-10T13:10:28.748Z,305
2017-07-10T13:11:28.691Z,295
2017-07-10T13:12:28.766Z,280
2017-07-10T13:13:28.825Z,275
2017-07-10T13:14:28.819Z,275
2017-07-10T13:15:28.870Z,275
2017-07-10T13:16:28.961Z,265
2017-07-10T13:17:28.941Z,245
2017-07-10T13:18:29.006Z,245
2017-07-10T13:19:29.005Z,265
2017-07-10T13:20:29.016Z,275
2017-07-10T13:21:29.108Z,275
2017-07-10T13:22:29.149Z,290
2017-07-10T13:23:29.174Z,305
2017-07-10T13:24:29.410Z,285
2017-07-10T13:25:29.246Z,270
2017-07-10T13:26:29.306Z,300
2017-07-10T13:27:29.370Z,320
2017-07-10T13:28:29.375Z,310
2017-07-10T13:29:29.421Z,285
2017-07-10T13:30:29.616Z,285
2017-07-10T13:31:29.560Z,310
2017-07-10T13:32:29.499Z,330
2017-07-10T13:33:29.540Z,355
2017-07-10T13:34:29.625Z,345
2017-07-10T13:35:29.614Z,375
2017-07-10T13:36:29.718Z,445
2017-07-10T13:37:29.732Z,520
2017-07-10T13:38:29.778Z,565
2017-07-10T13:39:29.820Z,585
2017-07-10T13:40:29.768Z,550
2017-07-10T13:41:29.831Z,510
2017-07-10T13:42:29.902Z,480
2017-07-10T13:43:29.904Z,440
2017-07-10T13:44:29.950Z,420
2017-07-10T13:45:30.037Z,415
2017-07-10T13:46:30.018Z,395
2017-07-10T13:47:30.129Z,385
2017-07-10T13:48:30.110Z,375
2017-07-10T13:49:30.144Z,370
2017-07-10T13:50:30.180Z,365
2017-07-10T13:51:30.199Z,355
2017-07-10T13:52:30.269Z,355
2017-07-10T13:53:30.319Z,365
2017-07-10T13:54:30.309Z,375
2017-07-10T13:55:30.360Z,375
2017-07-10T13:56:30.422Z,385
2017-07-10T13:57:30.426Z,385
2017-07-10T13:58:30.518Z,390
2017-07-10T13:59:30.479Z,385
2017-07-10T14:00:30.557Z,395
2017-07-10T14:01:30.633Z,420
2017-07-10T14:02:30.699Z,410
2017-07-10T14:03:30.709Z,395
2017-07-10T14:04:30.724Z,370